createdAt,value
2022-08-28T00:00:30.526Z,2.67
2022-08-28T00:02:59.910Z,2.60
2022-08-28T00:05:31.188Z,3.10
2022-08-28T00:08:08.976Z,2.72
2022-08-28T00:10:37.393Z,2.90
2022-08-28T00:13:04.453Z,2.92
2022-08-28T00:15:37.892Z,2.50
2022-08-28T00:18:08.892Z,3.05
2022-08-28T00:20:38.360Z,3.10
2022-08-28T00:23:07.100Z,2.97
2022-08-28T00:25:35.221Z,3.97
2022-08-28T00:28:08.880Z,3.20
2022-08-28T00:30:48.221Z,2.97
2022-08-28T00:33:25.715Z,3.08
2022-08-28T00:35:54.465Z,3.03
2022-08-28T00:38:24.601Z,3.00
2022-08-28T00:41:00.195Z,2.80
2022-08-28T00:43:42.833Z,3.20
2022-08-28T00:46:21.767Z,3.13
2022-08-28T00:48:50.488Z,3.15
2022-08-28T00:51:38.790Z,3.90
2022-08-28T00:54:08.261Z,3.58
2022-08-28T00:56:39.788Z,3.35
2022-08-28T00:59:15.572Z,3.53
2022-08-28T01:01:43.494Z,3.63
2022-08-28T01:04:17.072Z,3.03
2022-08-28T01:06:48.551Z,3.20
2022-08-28T01:09:15.708Z,3.63
2022-08-28T01:11:51.633Z,3.83
2022-08-28T01:14:26.611Z,3.47
2022-08-28T01:16:57.647Z,2.88
2022-08-28T01:19:35.166Z,3.17
2022-08-28T01:22:18.215Z,3.28
2022-08-28T01:24:47.851Z,3.75
2022-08-28T01:27:14.907Z,4.00
2022-08-28T01:29:44.709Z,3.63
2022-08-28T01:32:37.660Z,3.60
2022-08-28T01:35:10.698Z,3.50
2022-08-28T01:37:38.429Z,3.83
2022-08-28T01:40:09.339Z,3.50
2022-08-28T01:42:42.434Z,3.70
2022-08-28T01:45:15.849Z,3.40
2022-08-28T01:47:46.055Z,3.90
2022-08-28T01:50:18.830Z,3.88
2022-08-28T01:52:46.230Z,3.80
2022-08-28T01:55:14.035Z,3.67
2022-08-28T01:57:50.628Z,3.40
2022-08-28T02:00:18.237Z,3.13
2022-08-28T02:02:45.265Z,4.07
2022-08-28T02:05:12.352Z,3.67
2022-08-28T02:07:39.510Z,3.58
2022-08-28T02:10:10.141Z,3.78
2022-08-28T02:12:37.414Z,3.90
2022-08-28T02:15:07.412Z,3.58
2022-08-28T02:17:34.978Z,4.32
2022-08-28T02:20:02.508Z,4.30
2022-08-28T02:22:29.524Z,3.50
2022-08-28T02:24:56.539Z,4.10
2022-08-28T02:27:23.639Z,3.00
2022-08-28T02:29:50.569Z,3.85
2022-08-28T02:32:18.396Z,3.40
2022-08-28T02:34:45.444Z,3.35
2022-08-28T02:37:13.710Z,3.38
2022-08-28T02:39:40.969Z,3.47
2022-08-28T02:42:08.066Z,3.35
2022-08-28T02:44:35.654Z,2.85
2022-08-28T02:47:03.632Z,3.70
2022-08-28T02:49:36.168Z,3.92
2022-08-28T02:52:06.797Z,3.28
2022-08-28T02:54:34.797Z,3.45
2022-08-28T02:57:01.970Z,3.13
2022-08-28T02:59:29.531Z,3.40
2022-08-28T03:01:56.377Z,3.43
2022-08-28T03:04:23.363Z,3.13
2022-08-28T03:06:50.572Z,3.30
2022-08-28T03:09:17.547Z,3.60
2022-08-28T03:11:44.435Z,3.72
2022-08-28T03:14:14.299Z,3.35
2022-08-28T03:16:41.286Z,3.42
2022-08-28T03:19:08.383Z,2.95
2022-08-28T03:21:35.417Z,3.53
2022-08-28T03:24:02.771Z,3.17
2022-08-28T03:26:29.986Z,3.37
2022-08-28T03:28:57.670Z,3.60
2022-08-28T03:31:33.251Z,3.47
2022-08-28T03:34:03.103Z,3.60
2022-08-28T03:36:30.328Z,3.30
2022-08-28T03:39:05.501Z,3.53
2022-08-28T03:41:34.051Z,3.10
2022-08-28T03:44:02.828Z,3.77
2022-08-28T03:46:33.220Z,3.40
2022-08-28T03:49:09.146Z,3.37
2022-08-28T03:51:36.643Z,3.03
2022-08-28T03:54:07.162Z,3.13
2022-08-28T03:56:34.246Z,3.83
2022-08-28T03:59:05.125Z,3.30
2022-08-28T04:01:33.526Z,3.37
2022-08-28T04:04:00.730Z,3.57
2022-08-28T04:06:28.076Z,2.87
2022-08-28T04:08:55.777Z,3.15
2022-08-28T04:11:27.989Z,3.00
2022-08-28T04:13:55.039Z,3.10
2022-08-28T04:16:22.460Z,3.60
2022-08-28T04:18:50.363Z,3.10
2022-08-28T04:21:23.624Z,3.40
2022-08-28T04:23:51.226Z,3.00
2022-08-28T04:26:27.187Z,2.87
2022-08-28T04:28:55.977Z,3.30
2022-08-28T04:31:32.335Z,3.10
2022-08-28T04:34:05.944Z,3.20
2022-08-28T04:36:33.810Z,3.13
2022-08-28T04:39:02.654Z,2.95
2022-08-28T04:41:30.555Z,3.03
2022-08-28T04:44:00.896Z,3.20
2022-08-28T04:46:30.964Z,3.20
2022-08-28T04:49:04.445Z,3.15
2022-08-28T04:51:32.519Z,3.20
2022-08-28T04:54:02.875Z,3.00
2022-08-28T04:56:29.966Z,3.40
2022-08-28T04:58:56.885Z,3.60
2022-08-28T05:01:25.454Z,3.45
2022-08-28T05:03:57.990Z,3.30
2022-08-28T05:06:29.153Z,3.27
2022-08-28T05:09:03.557Z,3.07
2022-08-28T05:11:34.504Z,3.30
2022-08-28T05:14:12.682Z,3.30
2022-08-28T05:16:50.039Z,3.23
2022-08-28T05:19:19.870Z,3.40
2022-08-28T05:21:47.962Z,3.37
2022-08-28T05:24:15.004Z,3.70
2022-08-28T05:26:43.233Z,3.20
2022-08-28T05:29:11.247Z,3.28
2022-08-28T05:31:41.548Z,2.88
2022-08-28T05:34:10.340Z,3.00
2022-08-28T05:36:39.514Z,3.50
2022-08-28T05:39:11.180Z,3.00
2022-08-28T05:41:42.490Z,3.30
2022-08-28T05:44:13.120Z,3.00
2022-08-28T05:46:44.204Z,3.10
2022-08-28T05:49:13.699Z,3.17
2022-08-28T05:51:42.566Z,3.40
2022-08-28T05:54:10.733Z,3.28
2022-08-28T05:56:40.866Z,3.07
2022-08-28T05:59:09.314Z,3.10
2022-08-28T06:01:43.520Z,3.27
2022-08-28T06:04:15.895Z,3.13
2022-08-28T06:06:43.528Z,3.40
2022-08-28T06:09:29.047Z,3.13
2022-08-28T06:12:01.945Z,3.57
2022-08-28T06:14:29.931Z,2.90
2022-08-28T06:17:00.886Z,3.00
2022-08-28T06:19:31.317Z,3.50
2022-08-28T06:22:07.303Z,3.10
2022-08-28T06:24:35.077Z,3.90
2022-08-28T06:27:02.179Z,3.70
2022-08-28T06:29:30.169Z,3.55
2022-08-28T06:32:04.821Z,3.28
2022-08-28T06:34:32.086Z,3.60
2022-08-28T06:37:00.436Z,3.58
2022-08-28T06:39:27.606Z,3.53
2022-08-28T06:41:54.669Z,3.30
2022-08-28T06:44:22.358Z,3.72
2022-08-28T06:46:53.842Z,3.90
2022-08-28T06:49:22.063Z,4.10
2022-08-28T06:51:49.770Z,3.72
2022-08-28T06:54:22.291Z,3.72
2022-08-28T06:56:52.567Z,4.20
2022-08-28T06:59:19.707Z,3.95
2022-08-28T07:01:46.901Z,3.60
2022-08-28T07:04:14.746Z,3.28
2022-08-28T07:06:46.892Z,3.38
2022-08-28T07:09:14.534Z,3.53
2022-08-28T07:11:49.269Z,3.13
2022-08-28T07:14:16.431Z,3.47
2022-08-28T07:16:44.028Z,3.00
2022-08-28T07:19:13.292Z,2.83
2022-08-28T07:21:44.091Z,2.53
2022-08-28T07:24:14.736Z,3.00
2022-08-28T07:26:43.726Z,2.70
2022-08-28T07:29:12.042Z,2.80
2022-08-28T07:31:43.568Z,2.33
2022-08-28T07:34:13.534Z,2.50
2022-08-28T07:36:42.323Z,2.88
2022-08-28T07:39:12.151Z,2.40
2022-08-28T07:41:42.905Z,2.92
2022-08-28T07:44:32.277Z,2.38
2022-08-28T07:47:04.121Z,2.60
2022-08-28T07:49:33.651Z,2.55
2022-08-28T07:52:01.454Z,2.10
2022-08-28T07:54:28.395Z,2.03
2022-08-28T07:57:00.794Z,2.60
2022-08-28T07:59:34.131Z,2.53
2022-08-28T08:02:04.695Z,2.05
2022-08-28T08:04:31.824Z,2.40
2022-08-28T08:07:00.958Z,2.55
2022-08-28T08:09:28.499Z,2.65
2022-08-28T08:11:56.653Z,2.30
2022-08-28T08:14:27.841Z,2.03
2022-08-28T08:16:54.913Z,2.25
2022-08-28T08:19:22.131Z,2.47
2022-08-28T08:21:53.434Z,1.98
2022-08-28T08:24:28.612Z,2.08
2022-08-28T08:27:00.919Z,2.10
2022-08-28T08:29:36.410Z,2.00
2022-08-28T08:32:11.501Z,2.20
2022-08-28T08:34:43.149Z,2.10
2022-08-28T08:37:12.717Z,2.28
2022-08-28T08:39:42.241Z,2.20
2022-08-28T08:42:21.877Z,2.00
2022-08-28T08:44:51.997Z,2.40
2022-08-28T08:47:46.572Z,1.90
2022-08-28T08:50:24.812Z,2.20
2022-08-28T08:53:20.991Z,1.95
2022-08-28T08:55:56.908Z,1.85
2022-08-28T08:58:46.010Z,2.28
2022-08-28T09:01:46.221Z,2.08
2022-08-28T09:04:51.428Z,2.17
2022-08-28T09:07:42.730Z,1.98
2022-08-28T09:10:12.472Z,1.90
2022-08-28T09:13:02.944Z,1.83
2022-08-28T09:15:38.832Z,1.70
2022-08-28T09:18:25.869Z,1.98
2022-08-28T09:21:00.719Z,1.80
2022-08-28T09:23:29.937Z,1.80
2022-08-28T09:26:02.610Z,1.95
2022-08-28T09:28:38.288Z,2.00
2022-08-28T09:31:31.596Z,2.17
2022-08-28T09:34:18.279Z,1.83
2022-08-28T09:36:53.432Z,1.67
2022-08-28T09:39:24.766Z,1.88
2022-08-28T09:42:42.627Z,1.70
2022-08-28T09:45:18.727Z,1.92
2022-08-28T09:47:55.910Z,1.50
2022-08-28T09:50:41.694Z,1.80
2022-08-28T09:53:16.759Z,1.67
2022-08-28T09:55:52.708Z,1.90
2022-08-28T09:58:22.500Z,1.73
2022-08-28T10:01:31.047Z,1.50
2022-08-28T10:04:41.016Z,1.90
2022-08-28T10:07:37.535Z,1.48
2022-08-28T10:10:41.699Z,1.50
2022-08-28T10:13:38.057Z,1.65
2022-08-28T10:16:41.782Z,1.95
2022-08-28T10:19:41.499Z,1.77
2022-08-28T10:22:38.464Z,1.92
2022-08-28T10:25:26.089Z,1.63
2022-08-28T10:28:18.135Z,1.80
2022-08-28T10:31:15.628Z,1.30
2022-08-28T10:34:31.025Z,1.83
2022-08-28T10:37:38.756Z,1.10
2022-08-28T10:40:24.569Z,1.70
2022-08-28T10:43:07.361Z,1.45
2022-08-28T10:45:35.663Z,1.67
2022-08-28T10:48:47.619Z,1.77
2022-08-28T10:51:35.836Z,1.50
2022-08-28T10:54:21.906Z,1.80
2022-08-28T10:57:02.472Z,1.70
2022-08-28T10:59:34.733Z,1.75
2022-08-28T11:02:16.098Z,1.90
2022-08-28T11:04:47.801Z,1.60
2022-08-28T11:07:40.385Z,1.50
2022-08-28T11:10:46.902Z,1.70
2022-08-28T11:14:01.306Z,1.40
2022-08-28T11:16:28.336Z,1.30
2022-08-28T11:19:59.842Z,1.60
2022-08-28T11:22:55.125Z,1.63
2022-08-28T11:25:34.654Z,1.48
2022-08-28T11:28:25.697Z,1.30
2022-08-28T11:31:19.018Z,1.33
2022-08-28T11:34:04.624Z,1.42
2022-08-28T11:36:32.814Z,1.50
2022-08-28T11:39:16.032Z,2.35
2022-08-28T11:42:11.045Z,1.38
2022-08-28T11:44:45.869Z,1.50
2022-08-28T11:47:45.924Z,1.40
2022-08-28T11:50:28.269Z,1.58
2022-08-28T11:53:54.017Z,1.48
2022-08-28T11:56:37.001Z,1.58
2022-08-28T11:59:47.066Z,1.20
2022-08-28T12:02:44.052Z,1.30
2022-08-28T12:05:17.931Z,1.52
2022-08-28T12:07:49.806Z,1.88
2022-08-28T12:10:22.702Z,1.35
2022-08-28T12:12:59.352Z,1.60
2022-08-28T12:15:33.422Z,1.30
2022-08-28T12:18:06.100Z,1.40
2022-08-28T12:20:51.349Z,1.45
2022-08-28T12:23:45.109Z,1.80
2022-08-28T12:26:38.749Z,1.38
2022-08-28T12:29:31.032Z,1.20
2022-08-28T12:32:31.030Z,1.52
2022-08-28T12:38:05.883Z,1.13
2022-08-28T12:40:50.409Z,1.70
2022-08-28T12:43:41.722Z,1.50
2022-08-28T12:46:37.548Z,1.50
2022-08-28T12:49:27.259Z,1.58
2022-08-28T12:52:27.940Z,1.13
2022-08-28T12:54:56.054Z,1.40
2022-08-28T12:57:26.080Z,1.60
2022-08-28T12:59:56.407Z,1.55
2022-08-28T13:02:39.307Z,1.35
2022-08-28T13:05:33.425Z,1.50
2022-08-28T13:08:09.393Z,1.27
2022-08-28T13:10:49.441Z,1.33
2022-08-28T13:13:38.521Z,1.30
2022-08-28T13:16:11.815Z,1.20
2022-08-28T13:19:06.604Z,1.40
2022-08-28T13:21:48.041Z,1.35
2022-08-28T13:24:31.477Z,1.35
2022-08-28T13:27:06.416Z,1.50
2022-08-28T13:29:35.436Z,1.15
2022-08-28T13:32:15.320Z,1.70
2022-08-28T13:35:22.130Z,1.50
2022-08-28T13:38:00.527Z,1.00
2022-08-28T13:40:59.328Z,1.20
2022-08-28T13:43:44.749Z,1.20
2022-08-28T13:46:12.720Z,1.55
2022-08-28T13:48:42.632Z,1.10
2022-08-28T13:51:20.964Z,1.40
2022-08-28T13:53:50.474Z,1.13
2022-08-28T13:56:19.694Z,1.42
2022-08-28T13:58:57.548Z,1.40
2022-08-28T14:01:48.531Z,1.33
2022-08-28T14:04:15.826Z,1.40
2022-08-28T14:06:48.392Z,1.30
2022-08-28T14:09:18.556Z,1.55
2022-08-28T14:11:48.323Z,1.23
2022-08-28T14:14:16.509Z,1.27
2022-08-28T14:16:45.464Z,1.13
2022-08-28T14:19:12.855Z,1.50
2022-08-28T14:21:44.513Z,1.50
2022-08-28T14:24:13.339Z,1.38
2022-08-28T14:26:41.364Z,1.50
2022-08-28T14:29:15.434Z,1.30
2022-08-28T14:31:45.079Z,1.42
2022-08-28T14:34:22.395Z,1.27
2022-08-28T14:36:55.304Z,1.20
2022-08-28T14:39:28.004Z,1.20
2022-08-28T14:41:55.231Z,1.40
2022-08-28T14:44:25.333Z,1.60
2022-08-28T14:46:56.042Z,1.15
2022-08-28T14:49:26.516Z,1.30
2022-08-28T14:51:54.288Z,1.20
2022-08-28T14:54:25.250Z,1.27
2022-08-28T14:56:53.951Z,1.23
2022-08-28T14:59:28.501Z,1.20
2022-08-28T15:02:00.412Z,0.88
2022-08-28T15:04:36.385Z,1.10
2022-08-28T15:07:10.912Z,1.25
2022-08-28T15:09:41.856Z,1.38
2022-08-28T15:12:10.530Z,1.35
2022-08-28T15:14:37.775Z,1.20
2022-08-28T15:17:05.710Z,1.40
2022-08-28T15:19:33.221Z,1.35
2022-08-28T15:22:01.988Z,1.20
2022-08-28T15:24:35.588Z,1.15
2022-08-28T15:27:03.001Z,1.20
2022-08-28T15:29:30.502Z,1.30
2022-08-28T15:32:01.377Z,1.20
2022-08-28T15:34:28.664Z,1.15
2022-08-28T15:36:57.754Z,1.10
2022-08-28T15:39:46.365Z,1.20
2022-08-28T15:42:14.364Z,1.05
2022-08-28T15:44:41.939Z,1.15
2022-08-28T15:47:09.201Z,1.13
2022-08-28T15:49:43.670Z,1.13
2022-08-28T15:52:19.152Z,1.20
2022-08-28T15:54:47.071Z,1.45
2022-08-28T15:57:14.179Z,1.25
2022-08-28T15:59:49.332Z,1.05
2022-08-28T16:02:23.478Z,1.23
2022-08-28T16:04:51.291Z,1.15
2022-08-28T16:07:20.803Z,1.08
2022-08-28T16:09:48.042Z,1.20
2022-08-28T16:12:15.382Z,1.30
2022-08-28T16:14:42.610Z,1.42
2022-08-28T16:17:47.136Z,1.33
2022-08-28T16:19:57.778Z,1.20
2022-08-28T16:22:24.852Z,1.30
2022-08-28T16:24:51.798Z,1.35
2022-08-28T16:27:18.795Z,1.20
2022-08-28T16:29:45.962Z,1.23
2022-08-28T16:32:13.196Z,1.30
2022-08-28T16:34:40.345Z,1.23
2022-08-28T16:37:11.945Z,1.30
2022-08-28T16:39:39.579Z,1.40
2022-08-28T16:42:06.778Z,1.30
2022-08-28T16:44:35.137Z,1.40
2022-08-28T16:47:02.116Z,1.42
2022-08-28T16:49:30.013Z,1.48
2022-08-28T16:51:56.963Z,1.50
2022-08-28T16:54:24.226Z,1.08
2022-08-28T16:56:51.238Z,1.38
2022-08-28T16:59:20.331Z,1.27
2022-08-28T17:01:53.045Z,1.70
2022-08-28T17:04:21.448Z,1.50
2022-08-28T17:06:48.679Z,1.60
2022-08-28T17:09:15.759Z,1.50
2022-08-28T17:11:43.291Z,1.23
2022-08-28T17:14:11.947Z,1.40
2022-08-28T17:16:39.551Z,1.30
2022-08-28T17:19:06.699Z,1.42
2022-08-28T17:21:52.106Z,1.63
2022-08-28T17:24:19.627Z,1.52
2022-08-28T17:26:46.749Z,1.55
2022-08-28T17:29:13.895Z,1.60
2022-08-28T17:31:41.215Z,1.55
2022-08-28T17:34:08.518Z,1.60
2022-08-28T17:36:39.502Z,1.52
2022-08-28T17:39:15.294Z,1.50
2022-08-28T17:41:43.068Z,1.60
2022-08-28T17:44:10.407Z,1.85
2022-08-28T17:46:38.521Z,1.80
2022-08-28T17:49:08.666Z,1.80
2022-08-28T17:51:43.515Z,1.42
2022-08-28T17:54:18.658Z,1.80
2022-08-28T17:56:46.454Z,1.27
2022-08-28T17:59:14.904Z,1.50
2022-08-28T18:01:44.722Z,1.35
2022-08-28T18:04:13.016Z,1.67
2022-08-28T18:06:40.562Z,1.80
2022-08-28T18:09:09.729Z,1.77
2022-08-28T18:11:37.822Z,2.15
2022-08-28T18:14:05.610Z,1.42
2022-08-28T18:16:35.591Z,1.70
2022-08-28T18:19:11.083Z,1.48
2022-08-28T18:21:39.869Z,1.55
2022-08-28T18:24:08.147Z,1.50
2022-08-28T18:26:35.198Z,1.65
2022-08-28T18:29:02.171Z,1.80
2022-08-28T18:31:29.318Z,1.60
2022-08-28T18:33:56.645Z,1.80
2022-08-28T18:36:24.194Z,1.50
2022-08-28T18:38:51.895Z,1.73
2022-08-28T18:41:20.383Z,1.40
2022-08-28T18:43:47.935Z,1.60
2022-08-28T18:46:15.154Z,1.60
2022-08-28T18:48:44.223Z,1.40
2022-08-28T18:51:12.771Z,2.03
2022-08-28T18:53:43.210Z,1.73
2022-08-28T18:56:12.169Z,1.70
2022-08-28T18:58:40.840Z,1.55
2022-08-28T19:01:09.288Z,1.58
2022-08-28T19:03:36.829Z,1.77
2022-08-28T19:06:06.212Z,1.60
2022-08-28T19:08:35.285Z,1.40
2022-08-28T19:11:08.796Z,1.50
2022-08-28T19:13:36.211Z,1.70
2022-08-28T19:16:07.126Z,1.67
2022-08-28T19:18:34.642Z,1.70
2022-08-28T19:21:16.155Z,1.80
2022-08-28T19:23:55.260Z,1.60
2022-08-28T19:26:26.817Z,1.67
2022-08-28T19:28:54.217Z,1.80
2022-08-28T19:31:22.841Z,1.90
2022-08-28T19:33:51.025Z,1.50
2022-08-28T19:36:18.635Z,1.60
2022-08-28T19:38:45.780Z,1.70
2022-08-28T19:41:13.795Z,1.70
2022-08-28T19:43:44.423Z,1.65
2022-08-28T19:46:19.277Z,1.70
2022-08-28T19:48:48.716Z,1.90
2022-08-28T19:51:22.172Z,1.80
2022-08-28T19:53:57.771Z,1.52
2022-08-28T19:56:29.726Z,1.63
2022-08-28T19:59:00.482Z,1.70
2022-08-28T20:01:31.368Z,1.70
2022-08-28T20:04:00.123Z,1.80
2022-08-28T20:06:30.287Z,1.80
2022-08-28T20:08:57.737Z,1.80
2022-08-28T20:11:30.466Z,1.60
2022-08-28T20:14:04.973Z,1.50
2022-08-28T20:16:38.144Z,1.52
2022-08-28T20:19:07.966Z,1.90
2022-08-28T20:21:36.971Z,1.60
2022-08-28T20:24:12.845Z,1.70
2022-08-28T20:26:40.440Z,1.58
2022-08-28T20:29:10.213Z,1.67
2022-08-28T20:31:41.692Z,1.75
2022-08-28T20:34:10.309Z,1.52
2022-08-28T20:36:37.863Z,1.60
2022-08-28T20:39:07.306Z,1.90
2022-08-28T20:41:37.792Z,1.63
2022-08-28T20:44:07.783Z,1.80
2022-08-28T20:46:40.771Z,1.70
2022-08-28T20:49:10.665Z,1.70
2022-08-28T20:52:08.798Z,1.50
2022-08-28T20:54:39.043Z,1.50
2022-08-28T20:57:11.591Z,1.67
2022-08-28T20:59:41.314Z,2.05
2022-08-28T21:02:25.552Z,1.70
2022-08-28T21:04:53.749Z,1.55
2022-08-28T21:07:24.303Z,1.92
2022-08-28T21:10:05.108Z,1.90
2022-08-28T21:12:36.713Z,1.42
2022-08-28T21:15:08.903Z,1.92
2022-08-28T21:17:36.029Z,1.55
2022-08-28T21:20:10.810Z,1.60
2022-08-28T21:22:39.382Z,1.50
2022-08-28T21:25:10.272Z,1.73
2022-08-28T21:27:38.381Z,1.80
2022-08-28T21:30:08.435Z,1.75
2022-08-28T21:32:36.129Z,1.70
2022-08-28T21:35:07.273Z,1.77
2022-08-28T21:37:35.564Z,1.73
2022-08-28T21:40:04.711Z,1.63
2022-08-28T21:42:31.962Z,1.83
2022-08-28T21:44:58.957Z,2.00
2022-08-28T21:47:26.674Z,2.20
2022-08-28T21:49:56.662Z,2.03
2022-08-28T21:52:28.440Z,1.90
2022-08-28T21:55:11.336Z,2.83
2022-08-28T21:57:39.149Z,2.35
2022-08-28T22:00:16.369Z,2.30
2022-08-28T22:02:44.127Z,2.60
2022-08-28T22:05:11.505Z,2.72
2022-08-28T22:07:40.355Z,2.55
2022-08-28T22:10:08.969Z,3.40
2022-08-28T22:12:35.943Z,2.75
2022-08-28T22:15:03.234Z,3.50
2022-08-28T22:17:30.337Z,3.20
2022-08-28T22:19:57.372Z,3.55
2022-08-28T22:22:43.007Z,4.10
2022-08-28T22:25:10.128Z,4.30
2022-08-28T22:27:37.112Z,4.88
2022-08-28T22:30:05.453Z,5.05
2022-08-28T22:32:32.331Z,5.60
2022-08-28T22:35:01.907Z,5.90
2022-08-28T22:37:28.882Z,6.15
2022-08-28T22:39:55.889Z,7.00
2022-08-28T22:42:23.150Z,7.18
2022-08-28T22:44:50.293Z,7.32
2022-08-28T22:47:18.978Z,7.50
2022-08-28T22:49:46.406Z,7.13
2022-08-28T22:52:14.167Z,8.38
2022-08-28T22:54:41.596Z,8.63
2022-08-28T22:57:09.083Z,8.95
2022-08-28T22:59:37.090Z,9.07
2022-08-28T23:02:04.337Z,9.80
2022-08-28T23:04:31.431Z,9.57
2022-08-28T23:07:00.915Z,10.27
2022-08-28T23:09:28.008Z,10.23
2022-08-28T23:11:55.086Z,11.70
2022-08-28T23:14:27.303Z,11.77
2022-08-28T23:16:56.001Z,12.07
2022-08-28T23:19:23.849Z,11.25
2022-08-28T23:21:51.361Z,11.65
2022-08-28T23:24:18.821Z,11.23
2022-08-28T23:26:46.329Z,10.77
2022-08-28T23:29:14.926Z,11.40
2022-08-28T23:31:42.188Z,10.52
2022-08-28T23:34:09.614Z,10.20
2022-08-28T23:36:39.356Z,10.75
2022-08-28T23:39:10.160Z,10.32
2022-08-28T23:41:37.056Z,9.00
2022-08-28T23:44:08.444Z,10.23
2022-08-28T23:46:36.775Z,9.60
2022-08-28T23:49:08.423Z,8.52
2022-08-28T23:51:35.556Z,8.75
2022-08-28T23:54:02.929Z,7.80
2022-08-28T23:56:31.004Z,8.27
2022-08-28T23:58:58.950Z,8.73
